createdAt,value
2017-10-16T00:01:11.316Z,91.90
2017-10-16T00:03:38.799Z,91.80
2017-10-16T00:06:06.283Z,92.10
2017-10-16T00:08:33.788Z,91.80
2017-10-16T00:11:01.268Z,91.70
2017-10-16T00:13:28.772Z,91.80
2017-10-16T00:15:56.253Z,91.80
2017-10-16T00:18:23.738Z,91.70
2017-10-16T00:20:52.003Z,91.80
2017-10-16T00:23:19.573Z,91.80
2017-10-16T00:25:47.835Z,91.90
2017-10-16T00:28:16.083Z,91.90
2017-10-16T00:30:43.586Z,91.90
2017-10-16T00:33:11.841Z,91.90
2017-10-16T00:35:39.331Z,91.90
2017-10-16T00:38:07.598Z,92.00
2017-10-16T00:40:35.843Z,92.00
2017-10-16T00:43:03.365Z,92.00
2017-10-16T00:45:30.842Z,92.00
2017-10-16T00:47:58.344Z,91.90
2017-10-16T00:50:26.587Z,92.00
2017-10-16T00:52:54.083Z,92.00
2017-10-16T00:55:22.344Z,92.00
2017-10-16T00:57:49.820Z,91.90
2017-10-16T01:00:18.088Z,92.00
2017-10-16T01:02:46.337Z,92.10
2017-10-16T01:05:14.620Z,92.10
2017-10-16T01:07:42.107Z,92.10
2017-10-16T01:10:10.361Z,92.20
2017-10-16T01:12:37.852Z,92.20
2017-10-16T01:15:05.329Z,92.10
2017-10-16T01:17:32.826Z,92.10
2017-10-16T01:20:00.301Z,92.20
2017-10-16T01:22:28.571Z,92.30
2017-10-16T01:24:56.051Z,92.30
2017-10-16T01:27:24.312Z,92.20
2017-10-16T01:29:52.592Z,92.50
2017-10-16T01:32:20.845Z,92.30
2017-10-16T01:34:48.336Z,92.30
2017-10-16T01:37:16.580Z,92.50
2017-10-16T01:39:44.083Z,92.40
2017-10-16T01:42:12.326Z,92.50
2017-10-16T01:44:39.811Z,92.50
2017-10-16T01:47:08.068Z,92.40
2017-10-16T01:49:35.543Z,92.40
2017-10-16T01:52:03.810Z,92.30
2017-10-16T01:54:32.059Z,92.30
2017-10-16T01:56:59.684Z,92.20
2017-10-16T01:59:27.159Z,92.20
2017-10-16T02:01:54.649Z,92.30
2017-10-16T02:04:22.147Z,92.30
2017-10-16T02:06:49.619Z,92.40
2017-10-16T02:09:17.143Z,92.40
2017-10-16T02:11:45.399Z,92.40
2017-10-16T02:14:12.908Z,92.30
2017-10-16T02:16:41.312Z,92.40
2017-10-16T02:19:08.794Z,92.40
2017-10-16T02:21:36.292Z,92.40
2017-10-16T02:24:04.540Z,92.40
2017-10-16T02:26:32.795Z,92.40
2017-10-16T02:29:00.275Z,92.40
2017-10-16T02:31:28.548Z,92.40
2017-10-16T02:33:56.124Z,92.40
2017-10-16T02:36:24.383Z,92.40
2017-10-16T02:38:51.877Z,92.30
2017-10-16T02:41:19.360Z,92.30
2017-10-16T02:43:46.883Z,92.30
2017-10-16T02:46:15.123Z,92.30
2017-10-16T02:48:42.626Z,92.30
2017-10-16T02:51:10.871Z,92.30
2017-10-16T02:53:38.349Z,92.30
2017-10-16T02:56:06.603Z,92.40
2017-10-16T02:58:34.076Z,92.30
2017-10-16T03:01:02.344Z,92.30
2017-10-16T08:16:46.800Z,89.80
2017-10-16T08:19:14.319Z,89.90
2017-10-16T08:21:41.802Z,89.60
2017-10-16T08:24:10.060Z,88.70
2017-10-16T08:26:38.329Z,88.00
2017-10-16T08:29:05.824Z,87.90
2017-10-16T08:31:33.333Z,87.50
2017-10-16T08:34:00.875Z,87.30
2017-10-16T08:36:28.413Z,86.80
2017-10-16T08:38:55.893Z,86.60
2017-10-16T08:41:23.394Z,86.10
2017-10-16T08:43:51.641Z,85.90
2017-10-16T08:46:19.136Z,85.70
2017-10-16T08:48:47.392Z,85.00
2017-10-16T08:51:14.897Z,84.90
2017-10-16T08:53:42.395Z,84.80
2017-10-16T08:56:09.871Z,84.20
2017-10-16T08:58:37.364Z,84.10
2017-10-16T09:01:04.844Z,83.10
2017-10-16T09:03:32.335Z,83.30
2017-10-16T09:06:01.380Z,82.80
2017-10-16T09:08:28.904Z,82.70
2017-10-16T09:10:56.391Z,83.00
2017-10-16T09:13:23.870Z,83.10
2017-10-16T09:15:51.364Z,82.20
2017-10-16T09:18:18.849Z,82.10
2017-10-16T09:20:47.116Z,81.40
2017-10-16T09:23:15.363Z,81.20
2017-10-16T09:25:42.844Z,81.20
2017-10-16T09:28:10.355Z,81.20
2017-10-16T09:30:37.832Z,81.10
2017-10-16T09:33:05.331Z,81.00
2017-10-16T09:35:33.579Z,81.10
2017-10-16T09:38:01.121Z,81.10
2017-10-16T09:40:28.633Z,80.30
2017-10-16T09:42:56.884Z,80.00
2017-10-16T09:45:24.388Z,80.00
2017-10-16T09:47:51.885Z,80.30
2017-10-16T09:50:19.374Z,80.20
2017-10-16T09:52:46.894Z,79.90
2017-10-16T09:55:14.407Z,80.10
2017-10-16T09:57:42.668Z,78.60
2017-10-16T10:00:10.915Z,78.60
2017-10-16T10:02:38.440Z,78.60
2017-10-16T10:05:05.932Z,77.80
2017-10-16T10:07:33.413Z,78.00
2017-10-16T10:10:00.938Z,77.60
2017-10-16T10:12:28.417Z,77.70
2017-10-16T10:14:55.900Z,77.60
2017-10-16T10:17:24.160Z,77.60
2017-10-16T10:19:51.644Z,77.40
2017-10-16T10:22:19.915Z,76.90
2017-10-16T10:24:48.159Z,77.30
2017-10-16T10:27:15.640Z,77.20
2017-10-16T10:29:43.966Z,76.60
2017-10-16T10:32:11.476Z,76.50
2017-10-16T10:34:39.747Z,76.90
2017-10-16T10:37:07.228Z,76.90
2017-10-16T10:39:35.484Z,76.60
2017-10-16T10:42:02.980Z,76.50
2017-10-16T10:44:30.503Z,76.50
2017-10-16T10:46:58.004Z,76.00
2017-10-16T10:49:25.487Z,76.00
2017-10-16T10:51:52.976Z,76.10
2017-10-16T10:54:20.476Z,75.90
2017-10-16T10:56:47.960Z,75.70
2017-10-16T10:59:15.464Z,75.10
2017-10-16T11:01:43.700Z,74.50
2017-10-16T11:04:11.301Z,74.50
2017-10-16T11:06:39.597Z,74.70
2017-10-16T11:09:07.146Z,74.70
2017-10-16T11:11:35.407Z,74.10
2017-10-16T11:14:03.671Z,74.20
2017-10-16T11:16:31.171Z,74.20
2017-10-16T11:18:58.651Z,73.70
2017-10-16T11:21:26.134Z,73.70
2017-10-16T11:23:53.673Z,73.70
2017-10-16T11:26:21.151Z,73.30
2017-10-16T11:28:48.626Z,73.00
2017-10-16T11:31:16.120Z,72.30
2017-10-16T11:33:43.605Z,72.40
2017-10-16T11:36:11.221Z,72.00
2017-10-16T11:38:39.473Z,71.80
2017-10-16T11:41:07.060Z,71.80
2017-10-16T11:43:35.321Z,71.30
2017-10-16T11:46:03.636Z,71.00
2017-10-16T11:48:31.888Z,71.10
2017-10-16T11:51:00.140Z,70.80
2017-10-16T11:53:27.618Z,70.70
2017-10-16T11:55:55.872Z,70.70
2017-10-16T11:58:23.386Z,70.70
2017-10-16T12:00:50.913Z,70.60
2017-10-16T12:03:19.194Z,70.60
2017-10-16T12:05:47.439Z,70.50
2017-10-16T12:08:14.928Z,70.40
2017-10-16T12:10:43.177Z,70.20
2017-10-16T12:13:10.711Z,70.10
2017-10-16T12:15:38.196Z,70.70
2017-10-16T12:18:05.727Z,70.50
2017-10-16T12:20:33.246Z,70.00
2017-10-16T12:23:01.488Z,68.70
2017-10-16T12:25:29.067Z,68.80
2017-10-16T12:27:56.536Z,68.30
2017-10-16T12:30:24.784Z,67.80
2017-10-16T12:32:52.279Z,67.70
2017-10-16T12:35:20.520Z,66.10
2017-10-16T12:37:48.012Z,66.00
2017-10-16T12:40:16.251Z,64.10
2017-10-16T12:42:43.739Z,64.10
2017-10-16T12:45:12.000Z,64.50
2017-10-16T12:47:39.509Z,64.50
2017-10-16T12:50:07.021Z,64.10
2017-10-16T12:52:34.491Z,64.10
2017-10-16T12:55:02.727Z,64.10
2017-10-16T12:57:30.247Z,64.00
2017-10-16T12:59:57.735Z,63.50
2017-10-16T13:02:25.228Z,63.50
2017-10-16T13:04:53.505Z,63.70
2017-10-16T13:07:20.976Z,63.50
2017-10-16T13:09:49.257Z,64.30
2017-10-16T13:12:17.511Z,63.50
2017-10-16T13:14:45.009Z,63.40
2017-10-16T13:17:12.484Z,63.00
2017-10-16T13:19:39.976Z,63.50
2017-10-16T13:22:07.475Z,63.50
2017-10-16T13:24:35.019Z,62.80
2017-10-16T13:27:03.292Z,62.50
2017-10-16T13:29:31.545Z,61.90
2017-10-16T13:31:59.040Z,61.90
2017-10-16T13:34:27.303Z,62.00
2017-10-16T13:36:55.552Z,61.50
2017-10-16T13:39:23.147Z,61.30
2017-10-16T13:41:51.401Z,61.40
2017-10-16T13:44:18.888Z,61.30
2017-10-16T13:46:47.148Z,60.20
2017-10-16T13:49:15.395Z,59.60
2017-10-16T13:51:42.895Z,59.60
2017-10-16T13:54:11.140Z,60.80
2017-10-16T13:56:38.619Z,60.60
2017-10-16T13:59:06.099Z,60.30
2017-10-16T14:01:34.340Z,60.00
2017-10-16T14:04:01.862Z,60.00
2017-10-16T14:06:29.382Z,60.50
2017-10-16T14:08:57.627Z,60.40
2017-10-16T14:11:25.124Z,60.40
2017-10-16T14:13:53.367Z,61.40
2017-10-16T14:16:22.696Z,61.30
2017-10-16T14:18:50.944Z,63.70
2017-10-16T14:21:18.426Z,63.60
2017-10-16T14:23:46.691Z,65.80
2017-10-16T14:26:14.163Z,65.60
2017-10-16T14:28:42.422Z,68.50
2017-10-16T14:31:09.897Z,69.10
2017-10-16T14:33:38.145Z,69.60
2017-10-16T14:36:05.693Z,69.60
2017-10-16T14:38:33.176Z,70.50
2017-10-16T14:41:00.680Z,71.10
2017-10-16T14:43:28.163Z,72.00
2017-10-16T14:45:55.629Z,72.20
2017-10-16T14:48:23.124Z,73.00
2017-10-16T14:50:51.376Z,73.70
2017-10-16T14:53:18.871Z,73.70
2017-10-16T14:55:47.112Z,74.20
2017-10-16T14:58:14.589Z,74.10
2017-10-16T15:00:42.862Z,74.50
2017-10-16T15:03:11.120Z,74.80
2017-10-16T15:05:38.624Z,74.60
2017-10-16T15:08:06.196Z,75.20
2017-10-16T15:10:33.676Z,75.10
2017-10-16T15:13:01.197Z,75.30
2017-10-16T15:15:28.672Z,75.80
2017-10-16T15:17:56.172Z,75.70
2017-10-16T15:20:23.668Z,75.70
2017-10-16T15:22:51.907Z,76.10
2017-10-16T15:25:19.394Z,76.10
2017-10-16T15:27:47.636Z,76.70
2017-10-16T15:30:15.140Z,76.50
2017-10-16T15:32:42.624Z,76.70
2017-10-16T15:35:10.141Z,76.70
2017-10-16T15:37:38.397Z,77.30
2017-10-16T15:40:05.883Z,77.20
2017-10-16T15:42:34.148Z,77.30
2017-10-16T15:45:02.397Z,77.30
2017-10-16T15:47:29.879Z,77.30
2017-10-16T15:49:58.145Z,77.30
2017-10-16T15:52:25.621Z,77.20
2017-10-16T15:54:53.892Z,77.50
2017-10-16T15:57:21.376Z,77.50
2017-10-16T15:59:48.847Z,77.60
2017-10-16T16:02:16.375Z,77.80
2017-10-16T16:04:44.648Z,78.60
2017-10-16T16:07:12.904Z,78.80
2017-10-16T16:09:40.410Z,78.70
2017-10-16T16:12:07.896Z,79.00
2017-10-16T16:14:35.370Z,79.00
2017-10-16T16:17:02.856Z,79.10
2017-10-16T16:19:31.095Z,79.40
2017-10-16T16:21:58.610Z,79.20
2017-10-16T16:24:26.866Z,79.80
2017-10-16T16:26:55.183Z,79.70
2017-10-16T16:29:22.675Z,79.60
2017-10-16T16:31:50.148Z,79.60
2017-10-16T16:34:17.643Z,79.60
2017-10-16T16:36:45.228Z,79.90
2017-10-16T16:39:12.712Z,79.90
2017-10-16T16:41:40.226Z,80.10
2017-10-16T16:44:07.699Z,80.20
2017-10-16T16:46:35.207Z,80.30
2017-10-16T16:49:02.701Z,80.50
2017-10-16T16:51:30.176Z,80.60
2017-10-16T16:53:57.666Z,80.50
2017-10-16T16:56:25.143Z,80.40
2017-10-16T16:58:52.659Z,80.10
2017-10-16T17:01:20.164Z,80.10
2017-10-16T17:03:47.657Z,80.50
2017-10-16T17:06:15.155Z,80.90
2017-10-16T17:08:42.638Z,80.50
2017-10-16T17:11:10.143Z,80.60
2017-10-16T17:13:37.645Z,80.30
2017-10-16T17:16:05.155Z,80.40
2017-10-16T17:18:32.648Z,80.50
2017-10-16T17:21:00.243Z,80.60
2017-10-16T17:23:28.512Z,80.70
2017-10-16T17:25:56.011Z,80.70
2017-10-16T17:28:23.495Z,81.00
2017-10-16T17:30:50.995Z,81.20
2017-10-16T17:33:19.251Z,82.10
2017-10-16T17:35:46.807Z,81.80
2017-10-16T17:38:14.299Z,82.00
2017-10-16T17:40:42.543Z,82.90
2017-10-16T17:43:10.052Z,82.90
2017-10-16T17:45:37.524Z,83.20
2017-10-16T17:48:05.061Z,83.40
2017-10-16T17:50:32.543Z,83.60
2017-10-16T17:53:00.023Z,83.70
2017-10-16T17:55:27.527Z,84.00
2017-10-16T17:57:55.784Z,84.20
2017-10-16T18:00:23.289Z,84.10
2017-10-16T18:02:50.776Z,85.20
2017-10-16T18:05:18.269Z,85.10
2017-10-16T18:07:46.557Z,85.90
2017-10-16T18:10:14.803Z,86.30
2017-10-16T18:12:42.419Z,86.30
2017-10-16T18:15:09.940Z,86.60
2017-10-16T18:17:38.204Z,87.20
2017-10-16T18:20:05.701Z,87.20
2017-10-16T18:22:33.185Z,87.40
2017-10-16T18:25:00.691Z,87.40
2017-10-16T18:27:28.958Z,87.90
2017-10-16T18:29:56.464Z,87.90
2017-10-16T18:32:23.965Z,88.20
2017-10-16T18:34:51.563Z,88.40
2017-10-16T18:37:19.838Z,88.60
2017-10-16T18:39:48.080Z,88.80
2017-10-16T18:42:15.560Z,88.70
2017-10-16T18:44:43.820Z,88.90
2017-10-16T18:47:11.296Z,88.90
2017-10-16T18:49:39.607Z,89.10
2017-10-16T18:52:07.092Z,89.10
2017-10-16T18:54:34.568Z,89.20
2017-10-16T18:57:02.080Z,89.30
2017-10-16T18:59:29.571Z,89.40
2017-10-16T19:01:57.100Z,89.50
2017-10-16T19:04:24.587Z,89.90
2017-10-16T19:06:52.065Z,90.00
2017-10-16T19:09:19.552Z,90.10
2017-10-16T19:11:47.856Z,90.20
2017-10-16T19:14:15.380Z,90.20
2017-10-16T19:16:43.632Z,90.30
2017-10-16T19:19:11.120Z,90.30
2017-10-16T19:21:39.427Z,90.20
2017-10-16T19:24:06.906Z,90.20
2017-10-16T19:26:34.406Z,90.30
2017-10-16T19:29:01.942Z,90.20
2017-10-16T19:31:29.435Z,90.30
2017-10-16T19:33:57.694Z,90.30
2017-10-16T19:36:25.201Z,90.30
2017-10-16T19:38:52.725Z,90.40
2017-10-16T19:41:20.977Z,90.40
2017-10-16T19:43:49.968Z,90.40
2017-10-16T19:46:17.475Z,90.30
2017-10-16T19:48:44.953Z,90.30
2017-10-16T19:51:12.483Z,90.30
2017-10-16T19:53:39.965Z,90.30
2017-10-16T19:56:07.547Z,90.30
2017-10-16T19:58:35.068Z,90.20
2017-10-16T20:01:02.550Z,90.20
2017-10-16T20:03:30.065Z,90.20
2017-10-16T20:05:58.327Z,90.10
2017-10-16T20:08:25.805Z,90.10
2017-10-16T20:10:54.068Z,90.00
2017-10-16T20:13:22.351Z,89.80
2017-10-16T20:15:50.635Z,90.00
2017-10-16T20:18:18.908Z,90.00
2017-10-16T20:20:47.162Z,90.10
2017-10-16T20:23:16.172Z,90.00
2017-10-16T20:25:44.429Z,90.10
2017-10-16T20:28:11.948Z,90.10
2017-10-16T20:30:39.453Z,90.10
2017-10-16T20:33:07.703Z,90.00
2017-10-16T20:35:35.212Z,90.10
2017-10-16T20:38:03.459Z,90.00
2017-10-16T20:40:30.979Z,90.00
2017-10-16T20:42:58.481Z,90.40
2017-10-16T20:45:25.963Z,89.60
2017-10-16T20:47:53.466Z,89.70
2017-10-16T20:50:20.953Z,90.00
2017-10-16T20:52:50.072Z,89.50
2017-10-16T20:55:18.325Z,89.70
2017-10-16T20:57:45.814Z,89.60
2017-10-16T21:00:16.912Z,90.00
2017-10-16T21:02:44.399Z,89.90
2017-10-16T21:05:11.901Z,89.60
2017-10-16T21:07:39.379Z,90.00
2017-10-16T21:10:06.864Z,90.00
2017-10-16T21:12:34.355Z,90.00
2017-10-16T21:15:01.839Z,90.00
2017-10-16T21:17:29.364Z,90.00
2017-10-16T21:19:57.616Z,90.00
2017-10-16T21:22:25.093Z,90.00
2017-10-16T21:24:53.344Z,89.60
2017-10-16T21:27:20.832Z,89.60
2017-10-16T21:29:49.099Z,89.60
2017-10-16T21:32:17.347Z,89.70
2017-10-16T21:34:44.827Z,89.60
2017-10-16T21:37:12.433Z,89.70
2017-10-16T21:39:39.920Z,89.40
2017-10-16T21:42:07.420Z,89.40
2017-10-16T21:44:35.664Z,89.40
2017-10-16T21:47:03.152Z,89.40
2017-10-16T21:49:30.723Z,89.80
2017-10-16T21:51:58.974Z,90.10
2017-10-16T21:54:26.476Z,90.00
2017-10-16T21:56:53.992Z,90.00
2017-10-16T21:59:21.471Z,90.00
2017-10-16T22:01:49.734Z,90.10
2017-10-16T22:04:17.988Z,90.00
2017-10-16T22:06:45.496Z,90.00
2017-10-16T22:09:12.972Z,90.00
2017-10-16T22:11:40.459Z,89.90
2017-10-16T22:14:07.954Z,89.90
2017-10-16T22:16:36.202Z,89.20
2017-10-16T22:19:03.808Z,89.10
2017-10-16T22:21:31.307Z,89.30
2017-10-16T22:23:58.796Z,89.40
2017-10-16T22:26:26.290Z,89.50
2017-10-16T22:28:53.776Z,89.50
2017-10-16T22:31:21.283Z,89.10
2017-10-16T22:33:49.528Z,89.20
2017-10-16T22:36:17.007Z,89.20
2017-10-16T22:38:45.270Z,89.10
2017-10-16T22:41:14.261Z,89.00
2017-10-16T22:43:42.541Z,89.00
2017-10-16T22:46:10.060Z,89.00
2017-10-16T22:48:46.230Z,88.80
2017-10-16T22:51:13.712Z,88.80
2017-10-16T22:53:41.196Z,88.70
2017-10-16T22:56:09.472Z,89.00
2017-10-16T22:58:37.754Z,88.60
2017-10-16T23:01:06.032Z,88.70
2017-10-16T23:03:34.273Z,88.50
2017-10-16T23:06:01.756Z,88.50
2017-10-16T23:08:30.016Z,89.10
2017-10-16T23:10:57.497Z,88.40
2017-10-16T23:13:25.764Z,89.00
2017-10-16T23:15:53.245Z,88.90
2017-10-16T23:18:21.491Z,88.60
2017-10-16T23:20:48.983Z,88.50
2017-10-16T23:23:16.467Z,88.70
2017-10-16T23:25:43.972Z,88.40
2017-10-16T23:28:11.453Z,88.70
2017-10-16T23:30:39.702Z,88.50
2017-10-16T23:33:07.955Z,88.40
2017-10-16T23:35:35.435Z,88.40
2017-10-16T23:38:04.444Z,88.40
2017-10-16T23:40:32.692Z,88.40
2017-10-16T23:43:00.174Z,88.30
2017-10-16T23:45:28.446Z,88.20
2017-10-16T23:47:57.432Z,87.90
2017-10-16T23:50:24.928Z,87.90
2017-10-16T23:52:52.409Z,88.00
2017-10-16T23:55:19.928Z,88.10
2017-10-16T23:57:48.197Z,88.10
